Home > Products > Valid Products > TAF

000
FTUS43 KPAH 010520
TAFCGI
TAF
KCGI 010520Z 0106/0206 00000KT P6SM SKC
     FM011000 00000KT P6SM MIFG SCT250
     FM011300 05004KT P6SM FEW050
     FM020100 VRB02KT P6SM SCT250=



000
FTUS43 KPAH 010520
TAFPAH
TAF
KPAH 010520Z 0106/0206 VRB02KT P6SM SKC
     FM011000 00000KT P6SM MIFG SCT250
     FM011300 03005KT P6SM FEW050
     FM020100 VRB02KT P6SM SCT250=



000
FTUS43 KPAH 010520
TAFPAH
TAF
KPAH 010520Z 0106/0206 VRB02KT P6SM SKC
     FM011000 00000KT P6SM MIFG SCT250
     FM011300 03005KT P6SM FEW050
     FM020100 VRB02KT P6SM SCT250=



000
FTUS43 KPAH 010520
TAFEVV
TAF
KEVV 010520Z 0106/0206 27003KT P6SM VCSH SCT050
     FM010700 29003KT P6SM SKC
     FM011300 36005KT P6SM FEW050
     FM020100 00000KT P6SM SCT250=



000
FTUS43 KPAH 010520
TAFEVV
TAF
KEVV 010520Z 0106/0206 27003KT P6SM VCSH SCT050
     FM010700 29003KT P6SM SKC
     FM011300 36005KT P6SM FEW050
     FM020100 00000KT P6SM SCT250=



000
FTUS43 KPAH 312320
TAFEVV
TAF
KEVV 312320Z 0100/0124 31005KT P6SM FEW060
     FM010100 00000KT P6SM SKC
     FM011300 29005KT P6SM FEW050=



000
FTUS43 KPAH 312320
TAFPAH
TAF
KPAH 312320Z 0100/0124 33004KT P6SM FEW050
     FM010100 00000KT P6SM SKC
     FM011000 00000KT P6SM MIFG SKC
     FM011300 VRB03KT P6SM FEW050=



000
FTUS43 KPAH 312320
TAFCGI
TAF
KCGI 312320Z 0100/0124 01005KT P6SM FEW050
     FM010100 00000KT P6SM SKC
     FM011000 00000KT P6SM MIFG SKC
     FM011300 VRB03KT P6SM FEW050=



000
FTUS43 KPAH 311720
TAFCGI
TAF
KCGI 311720Z 3118/0118 02007KT P6SM SCT300
     FM010100 00000KT P6SM SKC=



000
FTUS43 KPAH 311720
TAFPAH
TAF
KPAH 311720Z 3118/0118 02007KT P6SM SCT300
     FM010100 00000KT P6SM SKC=



000
FTUS43 KPAH 311720
TAFEVV
TAF
KEVV 311720Z 3118/0118 36007KT P6SM FEW300
     FM010100 00000KT P6SM FEW300=



000
FTUS43 KPAH 311130
TAFEVV
TAF
KEVV 311130Z 3112/0112 34006KT P6SM FEW300
     FM010100 32002KT P6SM FEW300=



000
FTUS43 KPAH 311130
TAFCGI
TAF
KCGI 311130Z 3112/0112 33003KT P6SM SCT300
     FM311500 01006KT P6SM SCT300
     FM010100 VRB02KT P6SM SKC=



000
FTUS43 KPAH 311130
TAFPAH
TAF
KPAH 311130Z 3112/0112 34003KT P6SM SCT300
     FM311500 01007KT P6SM SCT300
     FM010100 VRB02KT P6SM SKC=



000
FTUS43 KPAH 310520
TAFPAH
TAF
KPAH 310520Z 3106/0106 01002KT P6SM SKC
     FM311700 36006KT P6SM SKC
     FM010000 03001KT P6SM SKC=



000
FTUS43 KPAH 310520
TAFCGI
TAF
KCGI 310520Z 3106/0106 VRB02KT P6SM SCT300
     FM311700 34005KT P6SM SKC
     FM010000 03002KT P6SM SKC=



000
FTUS43 KPAH 310520
TAFPAH
TAF
KPAH 310520Z 3106/0106 01002KT P6SM SKC
     FM311700 36006KT P6SM SKC
     FM010000 03001KT P6SM SKC=



000
FTUS43 KPAH 310520
TAFCGI
TAF
KCGI 310520Z 3106/0106 VRB02KT P6SM SCT300
     FM311700 34005KT P6SM SKC
     FM010000 03002KT P6SM SKC=



000
FTUS43 KPAH 310520
TAFEVV
TAF
KEVV 310520Z 3106/0106 31002KT P6SM FEW300
     FM311400 29004KT P6SM SKC
     FM311800 24003KT P6SM SKC=



000
FTUS43 KPAH 310520
TAFEVV
TAF
KEVV 310520Z 3106/0106 31002KT P6SM FEW300
     FM311400 29004KT P6SM SKC
     FM311800 24003KT P6SM SKC=



000
FTUS43 KPAH 302320
TAFCGI
TAF
KCGI 302320Z 3100/3124 VRB02KT P6SM SCT250
     FM311400 34005KT P6SM SKC=



000
FTUS43 KPAH 302320
TAFPAH
TAF
KPAH 302320Z 3100/3124 VRB02KT P6SM SCT250
     FM311400 34006KT P6SM SKC=



000
FTUS43 KPAH 302320
TAFEVV
TAF
KEVV 302320Z 3100/3124 32002KT P6SM SCT250
     FM311400 30004KT P6SM SKC
     FM311800 28007KT P6SM FEW050=



000
FTUS43 KPAH 301720
TAFEVV
TAF
KEVV 301720Z 3018/3118 34010KT P6SM SCT250
     FM310100 32002KT P6SM SCT250
     FM311400 30006KT P6SM SKC=



000
FTUS43 KPAH 301720
TAFCGI
TAF
KCGI 301720Z 3018/3118 36008KT P6SM SKC
     FM310100 VRB02KT P6SM SCT250
     FM311400 34005KT P6SM SKC=



000
FTUS43 KPAH 301720
TAFEVV
TAF
KEVV 301720Z 3018/3118 34010KT P6SM SCT250
     FM310100 32002KT P6SM SCT250
     FM311400 30006KT P6SM SKC=



000
FTUS43 KPAH 301720
TAFPAH
TAF
KPAH 301720Z 3018/3118 03010KT P6SM SKC
     FM310100 VRB02KT P6SM SCT250
     FM311400 34006KT P6SM SKC=



000
FTUS43 KPAH 301120
TAFCGI
TAF
KCGI 301120Z 3012/3112 02007KT P6SM SCT150
     FM310100 36002KT P6SM SKC=



000
FTUS43 KPAH 301120
TAFPAH
TAF
KPAH 301120Z 3012/3112 03008KT P6SM SCT200
     FM310100 32002KT P6SM SKC=



000
FTUS43 KPAH 301120
TAFEVV
TAF
KEVV 301120Z 3012/3112 34008KT P6SM SCT200
     FM310100 00000KT P6SM SKC=



000
FTUS43 KPAH 300557 RRA
TAFCGI
TAF
KCGI 300557Z 3006/3106 34004KT P6SM SCT150
     FM301400 03007KT P6SM SCT150
     FM310000 04003KT P6SM SKC=



000
FTUS43 KPAH 300557 RRA
TAFPAH
TAF
KPAH 300557Z 3006/3106 34004KT P6SM SCT150
     FM301400 03008KT P6SM SCT200
     FM310000 03003KT P6SM SKC=



000
FTUS43 KPAH 300557 RRA
TAFEVV
TAF
KEVV 300557Z 3006/3106 34005KT P6SM SCT200
     FM310000 30002KT P6SM SKC=



000
FTUS43 KPAH 300557 RRA
TAFEVV
TAF
KEVV 300557Z 3006/3106 34005KT P6SM SCT200
     FM310000 30002KT P6SM SKC=



000
FTUS43 KPAH 300557 RRA
TAFPAH
TAF
KPAH 300557Z 3006/3106 34004KT P6SM SCT150
     FM301400 03008KT P6SM SCT200
     FM310000 03003KT P6SM SKC=



000
FTUS43 KPAH 300557 RRA
TAFCGI
TAF
KCGI 300557Z 3006/3106 34004KT P6SM SCT150
     FM301400 03007KT P6SM SCT150
     FM310000 04003KT P6SM SKC=



000
FTUS43 KPAH 300145 AAA
TAFEVV
TAF AMD
KEVV 300145Z 3002/3024 33006KT P6SM SCT030 OVC200
     FM300500 01003KT P6SM SKC
     FM301500 03007KT P6SM SKC=



000
FTUS43 KPAH 292320
TAFPAH
TAF
KPAH 292320Z 3000/3024 34006KT P6SM FEW080
      TEMPO 3000/3001 SCT035 BKN060
     FM300600 02003KT P6SM SKC
     FM301530 03007KT P6SM SKC=



000
FTUS43 KPAH 292320
TAFEVV
TAF
KEVV 292320Z 3000/3024 34006KT P6SM FEW080
      TEMPO 3000/3003 SCT040 BKN050
     FM300300 01003KT P6SM SKC
     FM301500 03007KT P6SM SKC=



000
FTUS43 KPAH 292320
TAFCGI
TAF
KCGI 292320Z 3000/3024 36006KT P6SM FEW080
     FM300600 02003KT P6SM SKC
     FM301530 03007KT P6SM SKC=



000
FTUS43 KPAH 292250 AAC
TAFPAH
TAF AMD
KPAH 292250Z 2923/3018 32015G23KT P6SM VCTS SCT035 BKN050CB
     FM300000 36009KT P6SM SCT040 BKN250=



000
FTUS43 KPAH 292250 AAC
TAFPAH
TAF AMD
KPAH 292250Z 2923/3018 32015G23KT P6SM VCTS SCT035 BKN050CB
     FM300000 36009KT P6SM SCT040 BKN250=



000
FTUS43 KPAH 292205 AAB
TAFPAH
TAF AMD
KPAH 292205Z 2922/3018 32015G23KT P6SM VCTS SCT035 BKN050CB
      TEMPO 2922/2923 34016G34KT 1 1/2SM TSRA BR BKN035 OVC060CB
     FM300000 36009KT P6SM SCT040 BKN250=



000
FTUS43 KPAH 292011 AAB
TAFEVV
TAF AMD
KEVV 292011Z 2920/3018 34007KT P6SM VCTS BKN030 BKN070CB
      TEMPO 2921/2922 35008G22KT 1SM +TSRA BR BKN025CB OVC050
     FM292230 36010KT P6SM SCT025
     FM300200 35004KT P6SM SCT100=



000
FTUS43 KPAH 291854 AAA
TAFEVV
TAF AMD
KEVV 291854Z 2919/3018 33007KT P6SM VCTS SCT040CB BKN100
      TEMPO 2920/2922 VRB15G30KT 1SM +TSRA BR BKN025CB OVC050
     FM300200 35004KT P6SM SCT100=



000
FTUS43 KPAH 291854 AAA
TAFEVV
TAF AMD
KEVV 291854Z 2919/3018 33007KT P6SM VCTS SCT040CB BKN100
      TEMPO 2920/2922 VRB15G30KT 1SM +TSRA BR BKN025CB OVC050
     FM300200 35004KT P6SM SCT100=



000
FTUS43 KPAH 291809 RRA
TAFPAH
TAF
KPAH 291809Z 2918/3018 35006KT P6SM SCT050=



000
FTUS43 KPAH 291809 RRA
TAFEVV
TAF
KEVV 291809Z 2918/3018 33007KT P6SM VCTS SCT040CB BKN100
     FM300200 35004KT P6SM SCT100=



000
FTUS43 KPAH 291809 RRA
TAFCGI
TAF
KCGI 291809Z 2918/3018 36006KT P6SM SCT050=



000
FTUS43 KPAH 291124
TAFPAH
TAF
KPAH 291124Z 2912/3012 VRB03KT P6SM SCT100 SCT250
     FM291500 29006KT P6SM SCT040
     FM300000 35006KT P6SM SCT050=



000
FTUS43 KPAH 291124
TAFCGI
TAF
KCGI 291124Z 2912/3012 00000KT P6SM SCT100 SCT250
     FM291500 30006KT P6SM SCT035
     FM300000 36006KT P6SM SCT050=



000
FTUS43 KPAH 291124
TAFEVV
TAF
KEVV 291124Z 2912/3012 23003KT P6SM VCTS SCT040CB SCT250
      TEMPO 2912/2913 3SM TSRA BR BKN025CB
     FM291400 25005KT P6SM FEW035
     FM291800 29006KT P6SM SCT040
     FM292300 33007KT P6SM VCTS SCT040CB BKN100
     FM300200 35004KT P6SM SCT100=



000
FTUS43 KPAH 291047 AAA
TAFEVV
TAF AMD
KEVV 291047Z 2911/3006 22003KT P6SM VCTS SCT040CB SCT250
      TEMPO 2911/2913 3SM TSRA BR BKN035CB
     FM291500 25005KT P6SM FEW025
     FM291700 29006KT P6SM SCT035
     FM292300 33007KT P6SM FEW040=



000
FTUS43 KPAH 291047 AAA
TAFEVV
TAF AMD
KEVV 291047Z 2911/3006 22003KT P6SM VCTS SCT040CB SCT250
      TEMPO 2911/2913 3SM TSRA BR BKN035CB
     FM291500 25005KT P6SM FEW025
     FM291700 29006KT P6SM SCT035
     FM292300 33007KT P6SM FEW040=



    US Dept of Commerce
    National Oceanic and Atmospheric Administration
    National Weather Service
    1325 East West Highway
    Silver Spring, MD 20910
    Page Author: NWS Internet Services Team
Disclaimer
Information Quality
Credits
Glossary
Privacy Policy
Freedom of Information Act (FOIA)
About Us
Career Opportunities